sensor_id;sensor_type;location;lat;lon;timestamp;pressure;altitude;pressure_sealevel;temperature;humidity
62655;BME280;48717;55.556;37.816;2022-12-10T00:00:29;99305.44;;;-4.85;100.00
62655;BME280;48717;55.556;37.816;2022-12-10T00:03:15;99318.44;;;-4.82;100.00
62655;BME280;48717;55.556;37.816;2022-12-10T00:05:44;99322.56;;;-4.86;100.00
62655;BME280;48717;55.556;37.816;2022-12-10T00:08:12;99325.94;;;-4.87;100.00
62655;BME280;48717;55.556;37.816;2022-12-10T00:10:40;99332.38;;;-4.78;100.00
62655;BME280;48717;55.556;37.816;2022-12-10T00:13:07;99322.28;;;-4.90;100.00
62655;BME280;48717;55.556;37.816;2022-12-10T00:15:35;99338.06;;;-4.84;100.00
62655;BME280;48717;55.556;37.816;2022-12-10T00:18:02;99315.88;;;-4.99;100.00
62655;BME280;48717;55.556;37.816;2022-12-10T00:20:29;99359.13;;;-4.75;100.00
62655;BME280;48717;55.556;37.816;2022-12-10T00:22:56;99351.59;;;-4.72;100.00
62655;BME280;48717;55.556;37.816;2022-12-10T00:25:23;99362.66;;;-4.73;100.00
62655;BME280;48717;55.556;37.816;2022-12-10T00:27:50;99312.69;;;-4.94;100.00
62655;BME280;48717;55.556;37.816;2022-12-10T00:30:17;99352.53;;;-4.69;100.00
62655;BME280;48717;55.556;37.816;2022-12-10T00:32:44;99330.75;;;-4.76;100.00
62655;BME280;48717;55.556;37.816;2022-12-10T00:35:11;99306.94;;;-4.89;100.00
62655;BME280;48717;55.556;37.816;2022-12-10T00:37:38;99289.84;;;-4.88;100.00
62655;BME280;48717;55.556;37.816;2022-12-10T00:40:06;99331.31;;;-4.65;100.00
62655;BME280;48717;55.556;37.816;2022-12-10T00:42:34;99331.22;;;-4.67;100.00
62655;BME280;48717;55.556;37.816;2022-12-10T00:45:01;99315.69;;;-4.68;100.00
62655;BME280;48717;55.556;37.816;2022-12-10T00:47:28;99325.34;;;-4.64;100.00
62655;BME280;48717;55.556;37.816;2022-12-10T00:50:14;99299.16;;;-4.74;100.00
62655;BME280;48717;55.556;37.816;2022-12-10T00:52:41;99303.66;;;-4.69;100.00
62655;BME280;48717;55.556;37.816;2022-12-10T00:55:08;99312.44;;;-4.66;100.00
62655;BME280;48717;55.556;37.816;2022-12-10T00:57:35;99301.41;;;-4.63;100.00
62655;BME280;48717;55.556;37.816;2022-12-10T01:00:03;99281.78;;;-4.78;100.00
62655;BME280;48717;55.556;37.816;2022-12-10T01:02:31;99295.63;;;-4.76;100.00
62655;BME280;48717;55.556;37.816;2022-12-10T01:04:58;99307.59;;;-4.60;100.00
62655;BME280;48717;55.556;37.816;2022-12-10T01:07:25;99267.56;;;-4.71;100.00
62655;BME280;48717;55.556;37.816;2022-12-10T01:09:52;99291.44;;;-4.57;100.00
62655;BME280;48717;55.556;37.816;2022-12-10T01:12:20;99255.41;;;-4.74;100.00
62655;BME280;48717;55.556;37.816;2022-12-10T01:14:47;99276.88;;;-4.56;100.00
62655;BME280;48717;55.556;37.816;2022-12-10T01:17:15;99274.22;;;-4.58;100.00
62655;BME280;48717;55.556;37.816;2022-12-10T01:19:43;99250.53;;;-4.69;100.00
62655;BME280;48717;55.556;37.816;2022-12-10T01:22:10;99269.94;;;-4.57;100.00
62655;BME280;48717;55.556;37.816;2022-12-10T01:24:37;99254.47;;;-4.76;100.00
62655;BME280;48717;55.556;37.816;2022-12-10T01:27:09;99266.53;;;-4.75;100.00
62655;BME280;48717;55.556;37.816;2022-12-10T01:30:08;99275.69;;;-4.63;100.00
62655;BME280;48717;55.556;37.816;2022-12-10T01:32:49;99266.81;;;-4.68;100.00
62655;BME280;48717;55.556;37.816;2022-12-10T01:35:17;99233.72;;;-4.79;100.00
62655;BME280;48717;55.556;37.816;2022-12-10T01:37:44;99248.03;;;-4.67;100.00
62655;BME280;48717;55.556;37.816;2022-12-10T01:40:11;99250.09;;;-4.60;100.00
62655;BME280;48717;55.556;37.816;2022-12-10T01:42:39;99200.78;;;-4.86;100.00
62655;BME280;48717;55.556;37.816;2022-12-10T01:45:10;99236.13;;;-4.65;100.00
62655;BME280;48717;55.556;37.816;2022-12-10T01:47:38;99272.50;;;-4.57;100.00
62655;BME280;48717;55.556;37.816;2022-12-10T01:50:07;99282.03;;;-4.56;100.00
62655;BME280;48717;55.556;37.816;2022-12-10T01:52:36;99277.63;;;-4.59;100.00
62655;BME280;48717;55.556;37.816;2022-12-10T01:55:34;99272.59;;;-4.56;100.00
62655;BME280;48717;55.556;37.816;2022-12-10T01:57:54;99275.16;;;-4.56;100.00
62655;BME280;48717;55.556;37.816;2022-12-10T02:00:21;99261.38;;;-4.75;100.00
62655;BME280;48717;55.556;37.816;2022-12-10T02:03:04;99266.19;;;-4.64;100.00
62655;BME280;48717;55.556;37.816;2022-12-10T02:05:42;99270.09;;;-4.54;100.00
62655;BME280;48717;55.556;37.816;2022-12-10T02:08:31;99268.50;;;-4.52;100.00
62655;BME280;48717;55.556;37.816;2022-12-10T02:11:16;99233.25;;;-4.72;100.00
62655;BME280;48717;55.556;37.816;2022-12-10T02:14:00;99273.94;;;-4.46;100.00
62655;BME280;48717;55.556;37.816;2022-12-10T02:16:55;99280.00;;;-4.46;100.00
62655;BME280;48717;55.556;37.816;2022-12-10T02:19:50;99276.28;;;-4.51;100.00
62655;BME280;48717;55.556;37.816;2022-12-10T02:22:22;99278.06;;;-4.50;100.00
62655;BME280;48717;55.556;37.816;2022-12-10T02:24:52;99254.94;;;-4.66;100.00
62655;BME280;48717;55.556;37.816;2022-12-10T02:30:11;99271.78;;;-4.55;100.00
62655;BME280;48717;55.556;37.816;2022-12-10T02:32:40;99280.31;;;-4.56;100.00
62655;BME280;48717;55.556;37.816;2022-12-10T02:35:15;99248.69;;;-4.72;100.00
62655;BME280;48717;55.556;37.816;2022-12-10T02:37:56;99279.50;;;-4.55;100.00
62655;BME280;48717;55.556;37.816;2022-12-10T02:40:31;99288.03;;;-4.56;100.00
62655;BME280;48717;55.556;37.816;2022-12-10T02:43:01;99260.91;;;-4.67;100.00
62655;BME280;48717;55.556;37.816;2022-12-10T02:45:30;99274.53;;;-4.52;100.00
62655;BME280;48717;55.556;37.816;2022-12-10T02:48:02;99258.78;;;-4.58;100.00
62655;BME280;48717;55.556;37.816;2022-12-10T02:50:37;99243.00;;;-4.64;100.00
62655;BME280;48717;55.556;37.816;2022-12-10T02:53:05;99271.28;;;-4.48;100.00
62655;BME280;48717;55.556;37.816;2022-12-10T02:56:05;99240.59;;;-4.61;100.00
62655;BME280;48717;55.556;37.816;2022-12-10T03:03:58;99238.94;;;-4.42;100.00
62655;BME280;48717;55.556;37.816;2022-12-10T03:06:32;99234.09;;;-4.54;100.00
62655;BME280;48717;55.556;37.816;2022-12-10T03:09:09;99252.63;;;-4.43;100.00
62655;BME280;48717;55.556;37.816;2022-12-10T03:11:39;99227.56;;;-4.64;100.00
62655;BME280;48717;55.556;37.816;2022-12-10T03:14:29;99240.84;;;-4.56;100.00
62655;BME280;48717;55.556;37.816;2022-12-10T03:17:03;99264.56;;;-4.46;100.00
62655;BME280;48717;55.556;37.816;2022-12-10T03:19:36;99249.75;;;-4.50;100.00
62655;BME280;48717;55.556;37.816;2022-12-10T03:22:05;99243.81;;;-4.49;100.00
62655;BME280;48717;55.556;37.816;2022-12-10T03:24:35;99257.94;;;-4.40;100.00
62655;BME280;48717;55.556;37.816;2022-12-10T03:27:04;99262.28;;;-4.39;100.00
62655;BME280;48717;55.556;37.816;2022-12-10T03:29:39;99245.41;;;-4.51;100.00
62655;BME280;48717;55.556;37.816;2022-12-10T03:32:08;99262.94;;;-4.43;100.00
62655;BME280;48717;55.556;37.816;2022-12-10T03:34:36;99265.66;;;-4.40;100.00
62655;BME280;48717;55.556;37.816;2022-12-10T03:37:04;99258.59;;;-4.44;100.00
62655;BME280;48717;55.556;37.816;2022-12-10T03:39:32;99271.63;;;-4.41;100.00
62655;BME280;48717;55.556;37.816;2022-12-10T03:41:59;99273.38;;;-4.40;100.00
62655;BME280;48717;55.556;37.816;2022-12-10T03:44:33;99273.38;;;-4.40;100.00
62655;BME280;48717;55.556;37.816;2022-12-10T03:47:02;99276.91;;;-4.38;100.00
62655;BME280;48717;55.556;37.816;2022-12-10T03:49:30;99247.03;;;-4.53;100.00
62655;BME280;48717;55.556;37.816;2022-12-10T03:51:57;99262.28;;;-4.39;100.00
62655;BME280;48717;55.556;37.816;2022-12-10T03:54:24;99256.44;;;-4.53;100.00
62655;BME280;48717;55.556;37.816;2022-12-10T03:56:51;99277.81;;;-4.38;100.00
62655;BME280;48717;55.556;37.816;2022-12-10T03:59:18;99273.50;;;-4.37;100.00
62655;BME280;48717;55.556;37.816;2022-12-10T04:01:45;99261.34;;;-4.41;100.00
62655;BME280;48717;55.556;37.816;2022-12-10T04:04:13;99252.16;;;-4.36;100.00
62655;BME280;48717;55.556;37.816;2022-12-10T04:06:42;99207.44;;;-4.55;100.00
62655;BME280;48717;55.556;37.816;2022-12-10T04:09:10;99182.63;;;-4.54;100.00
62655;BME280;48717;55.556;37.816;2022-12-10T04:11:37;99223.81;;;-4.36;100.00
62655;BME280;48717;55.556;37.816;2022-12-10T04:14:04;99223.81;;;-4.36;100.00
62655;BME280;48717;55.556;37.816;2022-12-10T04:16:50;99181.72;;;-4.55;100.00
62655;BME280;48717;55.556;37.816;2022-12-10T04:19:18;99236.34;;;-4.26;100.00
62655;BME280;48717;55.556;37.816;2022-12-10T04:21:46;99225.88;;;-4.29;100.00
62655;BME280;48717;55.556;37.816;2022-12-10T04:24:33;99208.63;;;-4.48;100.00
62655;BME280;48717;55.556;37.816;2022-12-10T04:27:36;99255.16;;;-4.27;100.00
62655;BME280;48717;55.556;37.816;2022-12-10T04:30:06;99259.41;;;-4.27;100.00
62655;BME280;48717;55.556;37.816;2022-12-10T04:32:34;99229.63;;;-4.40;100.00
62655;BME280;48717;55.556;37.816;2022-12-10T04:35:01;99252.59;;;-4.27;100.00
62655;BME280;48717;55.556;37.816;2022-12-10T04:37:29;99247.44;;;-4.27;100.00
62655;BME280;48717;55.556;37.816;2022-12-10T04:39:56;99237.47;;;-4.37;100.00
62655;BME280;48717;55.556;37.816;2022-12-10T04:42:23;99255.28;;;-4.24;100.00
62655;BME280;48717;55.556;37.816;2022-12-10T04:44:50;99237.97;;;-4.28;100.00
62655;BME280;48717;55.556;37.816;2022-12-10T04:47:17;99253.84;;;-4.18;100.00
62655;BME280;48717;55.556;37.816;2022-12-10T04:49:45;99250.31;;;-4.21;100.00
62655;BME280;48717;55.556;37.816;2022-12-10T04:52:14;99239.84;;;-4.24;100.00
62655;BME280;48717;55.556;37.816;2022-12-10T04:54:42;99248.84;;;-4.15;100.00
62655;BME280;48717;55.556;37.816;2022-12-10T04:57:10;99255.69;;;-4.16;100.00
62655;BME280;48717;55.556;37.816;2022-12-10T04:59:38;99240.97;;;-4.18;100.00
62655;BME280;48717;55.556;37.816;2022-12-10T05:02:05;99248.06;;;-4.14;100.00
62655;BME280;48717;55.556;37.816;2022-12-10T05:04:33;99240.44;;;-4.11;100.00
62655;BME280;48717;55.556;37.816;2022-12-10T05:07:00;99244.00;;;-4.09;100.00
62655;BME280;48717;55.556;37.816;2022-12-10T05:09:27;99239.78;;;-4.07;100.00
62655;BME280;48717;55.556;37.816;2022-12-10T05:11:54;99193.22;;;-4.30;100.00
62655;BME280;48717;55.556;37.816;2022-12-10T05:14:22;99227.56;;;-4.11;100.00
62655;BME280;48717;55.556;37.816;2022-12-10T05:16:51;99228.31;;;-4.14;100.00
62655;BME280;48717;55.556;37.816;2022-12-10T05:19:19;99217.66;;;-4.22;100.00
62655;BME280;48717;55.556;37.816;2022-12-10T05:21:50;99239.78;;;-4.07;100.00
62655;BME280;48717;55.556;37.816;2022-12-10T05:24:36;99221.16;;;-4.20;100.00
62655;BME280;48717;55.556;37.816;2022-12-10T05:27:04;99250.66;;;-4.13;100.00
62655;BME280;48717;55.556;37.816;2022-12-10T05:29:32;99240.00;;;-4.21;100.00
62655;BME280;48717;55.556;37.816;2022-12-10T05:32:02;99243.69;;;-4.15;100.00
62655;BME280;48717;55.556;37.816;2022-12-10T05:34:30;99259.38;;;-4.11;100.00
62655;BME280;48717;55.556;37.816;2022-12-10T05:36:57;99146.09;;;-4.82;100.00
62655;BME280;48717;55.556;37.816;2022-12-10T05:39:26;99266.06;;;-4.14;100.00
62655;BME280;48717;55.556;37.816;2022-12-10T05:41:57;99260.94;;;-4.14;100.00
62655;BME280;48717;55.556;37.816;2022-12-10T05:44:25;99248.25;;;-4.28;100.00
62655;BME280;48717;55.556;37.816;2022-12-10T05:46:52;99257.53;;;-4.13;100.00
62655;BME280;48717;55.556;37.816;2022-12-10T05:49:19;99272.41;;;-4.08;100.00
62655;BME280;48717;55.556;37.816;2022-12-10T05:51:46;99251.38;;;-4.17;100.00
62655;BME280;48717;55.556;37.816;2022-12-10T05:54:13;99261.50;;;-4.02;100.00
62655;BME280;48717;55.556;37.816;2022-12-10T05:56:44;99250.25;;;-4.04;100.00
62655;BME280;48717;55.556;37.816;2022-12-10T05:59:12;99251.81;;;-4.08;100.00
62655;BME280;48717;55.556;37.816;2022-12-10T06:01:43;99250.91;;;-4.08;100.00
62655;BME280;48717;55.556;37.816;2022-12-10T06:04:11;99244.88;;;-4.09;100.00
62655;BME280;48717;55.556;37.816;2022-12-10T06:06:39;99224.72;;;-4.17;100.00
62655;BME280;48717;55.556;37.816;2022-12-10T06:09:11;99240.84;;;-4.03;100.00
62655;BME280;48717;55.556;37.816;2022-12-10T06:11:39;99229.38;;;-4.10;100.00
62655;BME280;48717;55.556;37.816;2022-12-10T06:14:06;99255.75;;;-3.96;100.00
62655;BME280;48717;55.556;37.816;2022-12-10T06:16:33;99204.03;;;-4.19;100.00
62655;BME280;48717;55.556;37.816;2022-12-10T06:19:00;99236.56;;;-4.03;100.00
62655;BME280;48717;55.556;37.816;2022-12-10T06:21:27;99228.09;;;-4.00;100.00
62655;BME280;48717;55.556;37.816;2022-12-10T06:23:54;99246.78;;;-3.86;100.00
62655;BME280;48717;55.556;37.816;2022-12-10T06:26:23;99226.19;;;-3.86;100.00
62655;BME280;48717;55.556;37.816;2022-12-10T06:28:52;99218.53;;;-3.85;100.00
62655;BME280;48717;55.556;37.816;2022-12-10T06:31:20;99210.72;;;-3.86;100.00
62655;BME280;48717;55.556;37.816;2022-12-10T06:33:47;99216.91;;;-3.83;100.00
62655;BME280;48717;55.556;37.816;2022-12-10T06:36:16;99218.06;;;-3.76;100.00
62655;BME280;48717;55.556;37.816;2022-12-10T06:38:44;99216.47;;;-3.74;100.00
62655;BME280;48717;55.556;37.816;2022-12-10T06:41:13;99221.69;;;-3.72;100.00
62655;BME280;48717;55.556;37.816;2022-12-10T06:43:41;99217.28;;;-3.75;100.00
62655;BME280;48717;55.556;37.816;2022-12-10T06:46:13;99202.19;;;-3.85;100.00
62655;BME280;48717;55.556;37.816;2022-12-10T06:48:41;99205.94;;;-3.78;100.00
62655;BME280;48717;55.556;37.816;2022-12-10T06:51:10;99181.16;;;-3.95;100.00
62655;BME280;48717;55.556;37.816;2022-12-10T06:53:40;99214.81;;;-3.72;100.00
62655;BME280;48717;55.556;37.816;2022-12-10T06:56:14;99209.41;;;-3.78;100.00
62655;BME280;48717;55.556;37.816;2022-12-10T06:58:42;99222.72;;;-3.69;100.00
62655;BME280;48717;55.556;37.816;2022-12-10T07:01:13;99194.69;;;-3.81;100.00
62655;BME280;48717;55.556;37.816;2022-12-10T07:03:42;99196.66;;;-3.75;100.00
62655;BME280;48717;55.556;37.816;2022-12-10T07:06:11;99197.34;;;-3.79;100.00
62655;BME280;48717;55.556;37.816;2022-12-10T07:08:38;99242.34;;;-3.52;100.00
62655;BME280;48717;55.556;37.816;2022-12-10T07:11:11;99221.50;;;-3.57;100.00
62655;BME280;48717;55.556;37.816;2022-12-10T07:13:40;99204.88;;;-3.64;100.00
62655;BME280;48717;55.556;37.816;2022-12-10T07:16:15;99227.03;;;-3.49;100.00
62655;BME280;48717;55.556;37.816;2022-12-10T07:18:44;99229.66;;;-3.48;100.00
62655;BME280;48717;55.556;37.816;2022-12-10T07:23:49;99216.47;;;-3.54;100.00
62655;BME280;48717;55.556;37.816;2022-12-10T07:26:16;99206.84;;;-3.58;100.00
62655;BME280;48717;55.556;37.816;2022-12-10T07:28:45;99229.94;;;-3.42;100.00
62655;BME280;48717;55.556;37.816;2022-12-10T07:31:19;99223.16;;;-3.39;100.00
62655;BME280;48717;55.556;37.816;2022-12-10T07:33:46;99228.44;;;-3.36;100.00
62655;BME280;48717;55.556;37.816;2022-12-10T07:36:13;99225.34;;;-3.29;100.00
62655;BME280;48717;55.556;37.816;2022-12-10T07:38:41;99215.22;;;-3.24;100.00
62655;BME280;48717;55.556;37.816;2022-12-10T07:41:10;99212.84;;;-3.20;100.00
62655;BME280;48717;55.556;37.816;2022-12-10T07:43:39;99193.31;;;-3.34;100.00
62655;BME280;48717;55.556;37.816;2022-12-10T07:46:12;99214.91;;;-3.12;100.00
62655;BME280;48717;55.556;37.816;2022-12-10T07:48:41;99216.00;;;-3.07;100.00
62655;BME280;48717;55.556;37.816;2022-12-10T07:51:09;99179.47;;;-3.17;100.00
62655;BME280;48717;55.556;37.816;2022-12-10T07:53:36;99203.66;;;-2.93;100.00
62655;BME280;48717;55.556;37.816;2022-12-10T07:56:04;99189.50;;;-3.03;100.00
62655;BME280;48717;55.556;37.816;2022-12-10T07:58:32;99171.06;;;-3.12;100.00
62655;BME280;48717;55.556;37.816;2022-12-10T08:01:05;99211.69;;;-2.87;100.00
62655;BME280;48717;55.556;37.816;2022-12-10T08:03:33;99179.13;;;-3.05;100.00
62655;BME280;48717;55.556;37.816;2022-12-10T08:06:05;99210.13;;;-2.83;100.00
62655;BME280;48717;55.556;37.816;2022-12-10T08:08:35;99195.06;;;-2.94;100.00
62655;BME280;48717;55.556;37.816;2022-12-10T08:11:04;99205.56;;;-2.89;100.00
62655;BME280;48717;55.556;37.816;2022-12-10T08:13:32;99145.00;;;-3.19;100.00
62655;BME280;48717;55.556;37.816;2022-12-10T08:16:05;99189.22;;;-2.90;100.00
62655;BME280;48717;55.556;37.816;2022-12-10T08:18:34;99177.75;;;-2.96;100.00
62655;BME280;48717;55.556;37.816;2022-12-10T08:21:07;99210.25;;;-2.80;100.00
62655;BME280;48717;55.556;37.816;2022-12-10T08:23:35;99202.31;;;-2.85;100.00
62655;BME280;48717;55.556;37.816;2022-12-10T08:26:04;99197.66;;;-2.94;100.00
62655;BME280;48717;55.556;37.816;2022-12-10T08:28:34;99172.13;;;-3.07;100.00
62655;BME280;48717;55.556;37.816;2022-12-10T08:31:03;99217.69;;;-2.88;100.00
62655;BME280;48717;55.556;37.816;2022-12-10T08:33:33;99191.00;;;-3.08;100.00
62655;BME280;48717;55.556;37.816;2022-12-10T08:36:03;99208.06;;;-2.91;100.00
62655;BME280;48717;55.556;37.816;2022-12-10T08:38:31;99203.00;;;-2.89;100.00
62655;BME280;48717;55.556;37.816;2022-12-10T08:40:58;99183.53;;;-3.02;100.00
62655;BME280;48717;55.556;37.816;2022-12-10T08:43:46;99183.94;;;-2.93;100.00
62655;BME280;48717;55.556;37.816;2022-12-10T08:46:20;99192.25;;;-2.79;100.00
62655;BME280;48717;55.556;37.816;2022-12-10T08:48:56;99194.91;;;-2.77;100.00
62655;BME280;48717;55.556;37.816;2022-12-10T08:51:25;99176.25;;;-2.91;100.00
62655;BME280;48717;55.556;37.816;2022-12-10T08:53:52;99197.66;;;-2.72;100.00
62655;BME280;48717;55.556;37.816;2022-12-10T08:56:22;99167.31;;;-2.78;100.00
62655;BME280;48717;55.556;37.816;2022-12-10T08:58:51;99170.59;;;-2.82;100.00
62655;BME280;48717;55.556;37.816;2022-12-10T09:01:22;99181.19;;;-2.76;100.00
62655;BME280;48717;55.556;37.816;2022-12-10T09:03:50;99150.13;;;-2.99;100.00
62655;BME280;48717;55.556;37.816;2022-12-10T09:06:22;99174.00;;;-2.83;100.00
62655;BME280;48717;55.556;37.816;2022-12-10T09:08:54;99203.97;;;-2.66;100.00
62655;BME280;48717;55.556;37.816;2022-12-10T09:11:27;99206.38;;;-2.70;100.00
62655;BME280;48717;55.556;37.816;2022-12-10T09:13:56;99189.00;;;-2.74;100.00
62655;BME280;48717;55.556;37.816;2022-12-10T09:16:36;99154.94;;;-2.87;100.00
62655;BME280;48717;55.556;37.816;2022-12-10T09:19:05;99191.81;;;-2.68;100.00
62655;BME280;48717;55.556;37.816;2022-12-10T09:21:33;99186.91;;;-2.62;100.00
62655;BME280;48717;55.556;37.816;2022-12-10T09:24:05;99192.03;;;-2.64;100.00
62655;BME280;48717;55.556;37.816;2022-12-10T09:26:36;99205.25;;;-2.56;100.00
62655;BME280;48717;55.556;37.816;2022-12-10T09:29:03;99169.22;;;-2.74;100.00
62655;BME280;48717;55.556;37.816;2022-12-10T09:31:30;99202.97;;;-2.48;100.00
62655;BME280;48717;55.556;37.816;2022-12-10T09:33:58;99196.06;;;-2.49;100.00
62655;BME280;48717;55.556;37.816;2022-12-10T09:36:28;99196.81;;;-2.52;100.00
62655;BME280;48717;55.556;37.816;2022-12-10T09:39:00;99193.41;;;-2.51;100.00
62655;BME280;48717;55.556;37.816;2022-12-10T09:46:57;99196.06;;;-2.49;100.00
62655;BME280;48717;55.556;37.816;2022-12-10T09:49:33;99191.13;;;-2.43;100.00
62655;BME280;48717;55.556;37.816;2022-12-10T09:52:11;99183.59;;;-2.38;100.00
62655;BME280;48717;55.556;37.816;2022-12-10T09:55:00;99163.44;;;-2.47;100.00
62655;BME280;48717;55.556;37.816;2022-12-10T09:58:06;99084.38;;;-2.88;100.00
62655;BME280;48717;55.556;37.816;2022-12-10T10:01:01;99053.50;;;-3.07;100.00
62655;BME280;48717;55.556;37.816;2022-12-10T10:03:40;98998.16;;;-3.35;100.00
62655;BME280;48717;55.556;37.816;2022-12-10T10:06:14;99058.19;;;-2.97;100.00
62655;BME280;48717;55.556;37.816;2022-12-10T10:08:56;99193.75;;;-2.20;100.00
62655;BME280;48717;55.556;37.816;2022-12-10T10:11:51;98992.28;;;-3.33;100.00
62655;BME280;48717;55.556;37.816;2022-12-10T10:15:46;99025.13;;;-3.07;100.00
62655;BME280;48717;55.556;37.816;2022-12-10T10:18:58;99164.78;;;-2.13;100.00
62655;BME280;48717;55.556;37.816;2022-12-10T10:21:49;98997.59;;;-3.07;100.00
62655;BME280;48717;55.556;37.816;2022-12-10T10:24:41;98995.78;;;-3.09;100.00
62655;BME280;48717;55.556;37.816;2022-12-10T10:29:49;99114.28;;;-2.27;100.00
62655;BME280;48717;55.556;37.816;2022-12-10T10:35:04;99092.69;;;-2.29;100.00
62655;BME280;48717;55.556;37.816;2022-12-10T10:40:02;99084.56;;;-2.39;100.00
62655;BME280;48717;55.556;37.816;2022-12-10T10:42:43;99115.22;;;-2.25;100.00
62655;BME280;48717;55.556;37.816;2022-12-10T10:48:18;99135.19;;;-2.21;100.00
62655;BME280;48717;55.556;37.816;2022-12-10T10:50:52;99145.00;;;-2.12;100.00
62655;BME280;48717;55.556;37.816;2022-12-10T10:53:30;99139.94;;;-2.09;100.00
62655;BME280;48717;55.556;37.816;2022-12-10T10:56:29;99133.91;;;-2.10;100.00
62655;BME280;48717;55.556;37.816;2022-12-10T10:59:02;99133.03;;;-2.10;100.00
62655;BME280;48717;55.556;37.816;2022-12-10T11:01:50;99124.22;;;-2.15;100.00
62655;BME280;48717;55.556;37.816;2022-12-10T11:04:28;99071.38;;;-2.46;100.00
62655;BME280;48717;55.556;37.816;2022-12-10T11:07:00;99126.50;;;-2.23;100.00
62655;BME280;48717;55.556;37.816;2022-12-10T11:09:30;99099.72;;;-2.48;100.00
62655;BME280;48717;55.556;37.816;2022-12-10T11:12:06;99127.16;;;-2.29;100.00
62655;BME280;48717;55.556;37.816;2022-12-10T11:14:43;99078.91;;;-2.51;100.00
62655;BME280;48717;55.556;37.816;2022-12-10T11:17:20;99107.47;;;-2.25;100.00
62655;BME280;48717;55.556;37.816;2022-12-10T11:19:58;99114.41;;;-2.24;100.00
62655;BME280;48717;55.556;37.816;2022-12-10T11:22:31;99100.56;;;-2.26;100.00
62655;BME280;48717;55.556;37.816;2022-12-10T11:24:59;99104.19;;;-2.21;100.00
62655;BME280;48717;55.556;37.816;2022-12-10T11:27:41;99065.66;;;-2.38;100.00
62655;BME280;48717;55.556;37.816;2022-12-10T11:30:20;99088.47;;;-2.27;100.00
62655;BME280;48717;55.556;37.816;2022-12-10T11:36:52;99082.00;;;-2.16;100.00
62655;BME280;48717;55.556;37.816;2022-12-10T11:39:08;98985.16;;;-2.73;100.00
62655;BME280;48717;55.556;37.816;2022-12-10T11:44:54;99072.44;;;-2.18;100.00
62655;BME280;48717;55.556;37.816;2022-12-10T11:50:18;99056.06;;;-2.19;100.00
62655;BME280;48717;55.556;37.816;2022-12-10T11:53:11;99058.66;;;-2.19;100.00
62655;BME280;48717;55.556;37.816;2022-12-10T11:56:01;99054.34;;;-2.18;100.00
62655;BME280;48717;55.556;37.816;2022-12-10T12:09:29;99054.41;;;-2.17;100.00
62655;BME280;48717;55.556;37.816;2022-12-10T12:14:56;99063.88;;;-2.17;100.00
62655;BME280;48717;55.556;37.816;2022-12-10T12:17:40;98985.75;;;-2.57;100.00
62655;BME280;48717;55.556;37.816;2022-12-10T12:20:32;99029.91;;;-2.28;100.00
62655;BME280;48717;55.556;37.816;2022-12-10T12:26:03;99036.19;;;-2.21;100.00
62655;BME280;48717;55.556;37.816;2022-12-10T12:28:46;99026.66;;;-2.23;100.00
62655;BME280;48717;55.556;37.816;2022-12-10T12:31:18;99047.84;;;-2.08;100.00
62655;BME280;48717;55.556;37.816;2022-12-10T12:33:54;99046.19;;;-2.06;100.00
62655;BME280;48717;55.556;37.816;2022-12-10T12:36:27;99049.78;;;-2.03;100.00
62655;BME280;48717;55.556;37.816;2022-12-10T12:39:07;99038.66;;;-2.00;100.00
62655;BME280;48717;55.556;37.816;2022-12-10T12:44:21;99037.72;;;-2.02;100.00
62655;BME280;48717;55.556;37.816;2022-12-10T12:47:00;98990.34;;;-2.27;100.00
62655;BME280;48717;55.556;37.816;2022-12-10T12:49:32;99009.66;;;-2.16;100.00
62655;BME280;48717;55.556;37.816;2022-12-10T12:54:56;98976.13;;;-2.39;100.00
62655;BME280;48717;55.556;37.816;2022-12-10T12:57:44;98965.72;;;-2.42;100.00
62655;BME280;48717;55.556;37.816;2022-12-10T13:00:16;99037.72;;;-2.02;100.00
62655;BME280;48717;55.556;37.816;2022-12-10T13:05:46;99033.63;;;-1.97;100.00
62655;BME280;48717;55.556;37.816;2022-12-10T13:13:32;99008.50;;;-2.01;100.00
62655;BME280;48717;55.556;37.816;2022-12-10T13:16:34;99044.06;;;-1.94;100.00
62655;BME280;48717;55.556;37.816;2022-12-10T13:24:46;99021.81;;;-1.90;100.00
62655;BME280;48717;55.556;37.816;2022-12-10T13:27:15;99033.72;;;-1.94;100.00
62655;BME280;48717;55.556;37.816;2022-12-10T13:38:15;99004.25;;;-1.99;100.00
62655;BME280;48717;55.556;37.816;2022-12-10T13:40:57;99010.69;;;-1.88;100.00
62655;BME280;48717;55.556;37.816;2022-12-10T13:43:52;98980.78;;;-2.05;100.00
62655;BME280;48717;55.556;37.816;2022-12-10T13:47:04;99008.72;;;-1.95;100.00
62655;BME280;48717;55.556;37.816;2022-12-10T13:49:59;98985.25;;;-2.01;100.00
62655;BME280;48717;55.556;37.816;2022-12-10T14:01:00;98995.41;;;-1.81;100.00
62655;BME280;48717;55.556;37.816;2022-12-10T14:06:16;99000.81;;;-1.75;100.00
62655;BME280;48717;55.556;37.816;2022-12-10T14:09:10;98993.19;;;-1.71;100.00
62655;BME280;48717;55.556;37.816;2022-12-10T14:11:49;98980.00;;;-1.78;100.00
62655;BME280;48717;55.556;37.816;2022-12-10T14:16:55;98969.66;;;-1.78;100.00
62655;BME280;48717;55.556;37.816;2022-12-10T14:19:25;98947.00;;;-1.86;100.00
62655;BME280;48717;55.556;37.816;2022-12-10T14:21:53;98994.34;;;-1.62;100.00
62655;BME280;48717;55.556;37.816;2022-12-10T14:24:35;98956.56;;;-1.83;100.00
62655;BME280;48717;55.556;37.816;2022-12-10T14:27:18;98963.13;;;-1.68;100.00
62655;BME280;48717;55.556;37.816;2022-12-10T14:29:48;98970.31;;;-1.60;100.00
62655;BME280;48717;55.556;37.816;2022-12-10T14:32:19;98934.34;;;-1.78;100.00
62655;BME280;48717;55.556;37.816;2022-12-10T14:34:55;98969.47;;;-1.59;100.00
62655;BME280;48717;55.556;37.816;2022-12-10T14:37:25;98929.16;;;-1.79;100.00
62655;BME280;48717;55.556;37.816;2022-12-10T14:39:53;98944.34;;;-1.63;100.00
62655;BME280;48717;55.556;37.816;2022-12-10T14:42:22;98924.25;;;-1.72;100.00
62655;BME280;48717;55.556;37.816;2022-12-10T14:45:05;98942.78;;;-1.58;100.00